Time;durP1;ratioP1;P1;durP2;ratioP2;P2;SDS_P1;SDS_P2;PMS_P1;PMS_P2;Temp;Humidity;BMP_temperature;BMP_pressure;BME280_temperature;BME280_humidity;BME280_pressure;Samples;Min_cycle;Max_cycle;Signal;HPM_P1;HPM_P2
2023/02/05 00:00:31;;;;;;;26.97;16.43;;;10.40;99.90;;;;;;6215024;23;20222;-77
2023/02/05 00:02:57;;;;;;;26.63;17.33;;;10.50;99.90;;;;;;6214895;23;20144;-77
2023/02/05 00:05:22;;;;;;;25.87;17.17;;;10.50;99.90;;;;;;6213576;23;20182;-77
2023/02/05 00:07:48;;;;;;;28.27;16.53;;;10.40;99.90;;;;;;6214817;23;20129;-77
2023/02/05 00:10:14;;;;;;;24.10;16.50;;;10.40;99.90;;;;;;6214705;23;20555;-77
2023/02/05 00:12:40;;;;;;;28.73;16.47;;;10.40;99.90;;;;;;6214229;23;20128;-77
2023/02/05 00:15:06;;;;;;;29.67;16.73;;;10.30;99.90;;;;;;6212703;23;20235;-76
2023/02/05 00:17:34;;;;;;;26.37;16.20;;;10.10;99.90;;;;;;6214421;23;20190;-77
2023/02/05 00:20:00;;;;;;;27.07;16.77;;;10.30;99.90;;;;;;6213171;23;20144;-76
2023/02/05 00:22:25;;;;;;;26.97;17.37;;;10.40;99.90;;;;;;6214368;23;20142;-76
2023/02/05 00:24:51;;;;;;;25.20;15.63;;;10.30;99.90;;;;;;6214605;23;20464;-76
2023/02/05 00:27:16;;;;;;;26.80;16.20;;;10.30;99.90;;;;;;6212380;23;20144;-76
2023/02/05 00:29:42;;;;;;;29.90;16.83;;;10.40;99.90;;;;;;6213066;23;20255;-76
2023/02/05 00:32:07;;;;;;;26.27;16.20;;;10.50;99.90;;;;;;6214586;23;20207;-76
2023/02/05 00:34:33;;;;;;;27.33;15.03;;;10.50;99.90;;;;;;6213241;23;20140;-76
2023/02/05 00:36:59;;;;;;;27.50;16.03;;;10.40;99.90;;;;;;6214605;23;20132;-77
2023/02/05 00:39:24;;;;;;;23.80;15.97;;;10.30;99.90;;;;;;6212969;23;20140;-76
2023/02/05 00:41:50;;;;;;;30.90;16.27;;;10.30;99.90;;;;;;6212751;23;20145;-76
2023/02/05 00:44:15;;;;;;;29.30;15.20;;;10.00;99.90;;;;;;6214575;23;20172;-76
2023/02/05 00:46:41;;;;;;;30.60;15.43;;;9.90;99.90;;;;;;6214464;23;20142;-76
2023/02/05 00:49:06;;;;;;;27.63;15.07;;;9.80;99.90;;;;;;6214431;23;20140;-77
2023/02/05 00:51:32;;;;;;;27.33;15.67;;;10.00;99.90;;;;;;6212660;23;20144;-76
2023/02/05 00:53:57;;;;;;;22.60;14.83;;;10.00;99.90;;;;;;6214864;23;20194;-76
2023/02/05 00:56:23;;;;;;;26.93;14.67;;;10.10;99.90;;;;;;6212712;23;20171;-76
2023/02/05 00:58:50;;;;;;;27.50;15.10;;;10.10;99.90;;;;;;6214523;23;20140;-76
2023/02/05 01:01:16;;;;;;;27.30;14.53;;;10.20;99.90;;;;;;6212911;23;20148;-76
2023/02/05 01:03:42;;;;;;;26.40;15.10;;;10.30;99.90;;;;;;6212932;23;20547;-76
2023/02/05 01:06:08;;;;;;;23.47;14.57;;;10.20;99.90;;;;;;6212982;23;20175;-76
2023/02/05 01:08:34;;;;;;;28.00;15.53;;;10.10;99.90;;;;;;6212933;23;20152;-76
2023/02/05 01:11:00;;;;;;;25.70;15.73;;;10.10;99.90;;;;;;6212456;23;20180;-76
2023/02/05 01:13:26;;;;;;;30.30;16.57;;;10.20;99.90;;;;;;6212935;23;20144;-76
2023/02/05 01:15:51;;;;;;;27.17;16.30;;;10.20;99.90;;;;;;6213043;23;20688;-76
2023/02/05 01:18:17;;;;;;;26.07;14.97;;;10.30;99.90;;;;;;6212763;23;20190;-76
2023/02/05 01:20:43;;;;;;;23.67;15.13;;;10.50;99.90;;;;;;6213064;23;20144;-76
2023/02/05 01:23:10;;;;;;;25.47;15.27;;;10.50;99.90;;;;;;6214542;23;20152;-77
2023/02/05 01:25:35;;;;;;;29.13;15.60;;;10.50;99.90;;;;;;6214179;23;20239;-77
2023/02/05 01:28:01;;;;;;;28.30;15.80;;;10.60;99.90;;;;;;6215764;23;20687;-76
2023/02/05 01:30:27;;;;;;;22.33;15.10;;;10.50;99.90;;;;;;6216555;23;20645;-77
2023/02/05 01:32:53;;;;;;;26.63;15.20;;;10.30;99.90;;;;;;6216236;23;20135;-77
2023/02/05 01:35:18;;;;;;;26.67;16.50;;;10.10;99.90;;;;;;6214645;23;20148;-77
2023/02/05 01:37:44;;;;;;;28.20;15.07;;;10.30;99.90;;;;;;6214712;23;20574;-77
2023/02/05 01:40:14;;;;;;;30.87;15.73;;;10.20;99.90;;;;;;6216079;23;20132;-77
2023/02/05 01:42:40;;;;;;;28.63;15.53;;;10.10;99.90;;;;;;6214802;23;20570;-77
2023/02/05 01:45:20;;;;;;;26.13;14.90;;;10.20;99.90;;;;;;6216037;23;20136;-77
2023/02/05 01:47:51;;;;;;;25.53;15.43;;;10.20;99.90;;;;;;6214349;23;20498;-77
2023/02/05 01:50:40;;;;;;;23.77;13.70;;;10.10;99.90;;;;;;6214122;23;20619;-77
2023/02/05 01:53:10;;;;;;;23.33;13.67;;;10.10;99.90;;;;;;6215357;23;20163;-77
2023/02/05 01:55:43;;;;;;;24.37;14.23;;;9.90;99.90;;;;;;6216080;23;20158;-77
2023/02/05 01:58:11;;;;;;;20.00;12.67;;;9.90;99.90;;;;;;6214260;23;20171;-77
2023/02/05 02:00:36;;;;;;;25.67;13.77;;;9.90;99.90;;;;;;6214585;23;20510;-77
2023/02/05 02:03:04;;;;;;;25.33;12.23;;;9.80;99.90;;;;;;6214418;23;20208;-77
2023/02/05 02:05:30;;;;;;;24.57;12.43;;;9.90;99.90;;;;;;6214509;23;20555;-77
2023/02/05 02:07:55;;;;;;;18.10;10.80;;;9.80;99.90;;;;;;6214252;23;20194;-77
2023/02/05 02:10:22;;;;;;;20.43;11.03;;;9.80;99.90;;;;;;6214171;23;20217;-77
2023/02/05 02:12:49;;;;;;;18.43;9.87;;;9.80;99.90;;;;;;6214482;23;20470;-77
2023/02/05 02:15:19;;;;;;;16.10;9.33;;;9.80;99.90;;;;;;6215642;23;20159;-77
2023/02/05 02:17:50;;;;;;;14.33;9.30;;;9.80;99.90;;;;;;6215629;23;20135;-77
2023/02/05 02:20:20;;;;;;;13.90;9.37;;;9.80;99.90;;;;;;6215837;23;20147;-77
2023/02/05 02:23:11;;;;;;;15.77;8.80;;;9.80;99.90;;;;;;6213940;23;20183;-77
2023/02/05 02:25:44;;;;;;;13.37;7.83;;;9.70;99.90;;;;;;6214070;23;20586;-77
2023/02/05 02:28:09;;;;;;;14.60;8.37;;;9.70;99.90;;;;;;6214326;23;20155;-77
2023/02/05 02:30:38;;;;;;;17.13;9.03;;;10.00;99.90;;;;;;6215543;23;20164;-77
2023/02/05 02:33:27;;;;;;;12.07;7.20;;;10.00;99.90;;;;;;6214145;23;20148;-78
2023/02/05 02:36:16;;;;;;;13.23;7.63;;;10.00;99.90;;;;;;6213971;23;20179;-77
2023/02/05 02:39:05;;;;;;;12.70;7.63;;;10.00;99.90;;;;;;6213676;23;20144;-77
2023/02/05 02:41:51;;;;;;;10.00;6.67;;;10.00;99.90;;;;;;6214208;23;20144;-77
2023/02/05 02:44:36;;;;;;;11.47;6.73;;;9.80;99.90;;;;;;6214018;23;20146;-77
2023/02/05 02:47:12;;;;;;;10.00;6.13;;;9.80;99.90;;;;;;6214115;23;20345;-77
2023/02/05 02:49:57;;;;;;;10.67;6.27;;;9.90;99.90;;;;;;6215116;23;20629;-77
2023/02/05 02:52:25;;;;;;;9.80;5.80;;;9.90;99.90;;;;;;6213705;23;20172;-77
2023/02/05 02:54:56;;;;;;;11.00;6.87;;;9.90;99.90;;;;;;6213850;23;20224;-77
2023/02/05 02:57:27;;;;;;;8.97;5.30;;;9.80;99.90;;;;;;6213715;23;20594;-77
2023/02/05 02:59:59;;;;;;;9.67;5.43;;;9.90;99.90;;;;;;6215320;23;20167;-77
2023/02/05 03:02:29;;;;;;;8.73;5.33;;;9.90;99.90;;;;;;6215325;23;20136;-77
2023/02/05 03:05:00;;;;;;;8.00;5.13;;;9.90;99.90;;;;;;6213759;23;20616;-77
2023/02/05 03:07:31;;;;;;;6.03;4.07;;;9.90;99.90;;;;;;6215106;23;20175;-77
2023/02/05 03:10:21;;;;;;;8.63;4.77;;;9.70;99.90;;;;;;6213461;23;20175;-77
2023/02/05 03:12:48;;;;;;;5.17;4.13;;;9.70;99.90;;;;;;6214002;23;20538;-77
2023/02/05 03:15:14;;;;;;;7.23;3.50;;;9.90;99.90;;;;;;6213592;23;20481;-77
2023/02/05 03:17:41;;;;;;;7.63;4.20;;;9.80;99.90;;;;;;6215441;23;20235;-77
2023/02/05 03:20:14;;;;;;;7.67;4.13;;;9.80;99.90;;;;;;6213623;23;20152;-77
2023/02/05 03:22:40;;;;;;;4.33;3.43;;;9.80;99.90;;;;;;6214021;23;20170;-77
2023/02/05 03:25:07;;;;;;;7.90;4.07;;;9.80;99.90;;;;;;6214018;23;20148;-77
2023/02/05 03:27:33;;;;;;;5.73;3.47;;;9.70;99.90;;;;;;6215316;23;20198;-77
2023/02/05 03:30:00;;;;;;;5.10;3.40;;;9.60;99.90;;;;;;6213542;23;20553;-77
2023/02/05 03:32:37;;;;;;;5.40;3.30;;;9.60;99.90;;;;;;6213513;23;20415;-77
2023/02/05 03:35:06;;;;;;;6.30;3.37;;;9.60;99.90;;;;;;6214694;23;20155;-77
2023/02/05 03:38:03;;;;;;;9.07;3.90;;;9.60;99.90;;;;;;6213473;23;20144;-77
2023/02/05 03:41:00;;;;;;;4.43;3.97;;;9.50;99.90;;;;;;6208889;23;20593;-77
2023/02/05 03:43:45;;;;;;;5.03;3.77;;;9.60;99.90;;;;;;6213353;23;20186;-77
2023/02/05 03:46:27;;;;;;;7.27;3.70;;;9.50;99.90;;;;;;6213405;23;20155;-77
2023/02/05 03:49:12;;;;;;;10.90;4.40;;;9.60;99.90;;;;;;6213400;23;20593;-76
2023/02/05 03:51:50;;;;;;;6.27;3.87;;;9.60;99.90;;;;;;6214483;23;20190;-77
2023/02/05 03:54:26;;;;;;;7.50;3.80;;;9.60;99.90;;;;;;6214968;23;20132;-77
2023/02/05 03:56:59;;;;;;;5.57;3.70;;;9.60;99.90;;;;;;6213246;23;20196;-77
2023/02/05 03:59:28;;;;;;;6.10;3.37;;;9.50;99.90;;;;;;6215303;23;20274;-77
2023/02/05 04:01:55;;;;;;;8.87;4.60;;;9.40;99.90;;;;;;6213474;23;20168;-77
2023/02/05 04:04:21;;;;;;;7.83;4.47;;;9.60;99.90;;;;;;6214340;23;20190;-73
2023/02/05 04:06:49;;;;;;;6.73;4.47;;;9.70;99.90;;;;;;6213304;23;20457;-72
2023/02/05 04:09:14;;;;;;;7.90;4.37;;;9.40;99.90;;;;;;6214842;23;20132;-72
2023/02/05 04:11:40;;;;;;;8.60;4.80;;;9.30;99.90;;;;;;6214573;23;20136;-72
2023/02/05 04:14:06;;;;;;;7.93;4.73;;;9.40;99.90;;;;;;6214633;23;20158;-73
2023/02/05 04:16:32;;;;;;;7.17;4.27;;;9.50;99.90;;;;;;6214586;23;20225;-72
2023/02/05 04:18:58;;;;;;;6.10;4.23;;;9.40;99.90;;;;;;6213014;23;20144;-72
2023/02/05 04:21:23;;;;;;;7.27;4.63;;;9.60;99.90;;;;;;6212980;23;20178;-73
2023/02/05 04:23:49;;;;;;;7.00;4.47;;;9.50;99.90;;;;;;6214802;23;20132;-72
2023/02/05 04:26:15;;;;;;;8.43;4.50;;;9.50;99.90;;;;;;6213187;23;20540;-72
2023/02/05 04:28:40;;;;;;;8.90;4.80;;;9.50;99.90;;;;;;6214694;23;20589;-73
2023/02/05 04:31:08;;;;;;;9.00;4.60;;;9.30;99.90;;;;;;6213196;23;20314;-72
2023/02/05 04:33:34;;;;;;;8.47;4.70;;;9.40;99.90;;;;;;6214053;23;20155;-74
2023/02/05 04:36:00;;;;;;;10.20;4.40;;;9.60;99.90;;;;;;6214685;23;20550;-74
2023/02/05 04:38:26;;;;;;;9.47;4.57;;;9.60;99.90;;;;;;6214573;23;20132;-72
2023/02/05 04:40:51;;;;;;;9.50;5.00;;;9.60;99.90;;;;;;6214750;23;20143;-72
2023/02/05 04:43:18;;;;;;;8.23;4.93;;;9.70;99.90;;;;;;6214455;23;20189;-72
2023/02/05 04:45:46;;;;;;;9.60;5.60;;;9.60;99.90;;;;;;6215050;23;20486;-73
2023/02/05 04:48:11;;;;;;;11.97;5.73;;;9.50;99.90;;;;;;6214198;23;20136;-73
2023/02/05 04:50:37;;;;;;;10.83;5.30;;;9.40;99.90;;;;;;6214532;23;20605;-72
2023/02/05 04:53:04;;;;;;;11.57;6.37;;;9.30;99.90;;;;;;6212771;23;20145;-73
2023/02/05 04:55:30;;;;;;;15.33;7.70;;;9.30;99.90;;;;;;6214474;23;20134;-72
2023/02/05 04:57:56;;;;;;;10.80;6.67;;;9.20;99.90;;;;;;6214442;23;20163;-72
2023/02/05 05:00:22;;;;;;;11.53;6.90;;;9.10;99.90;;;;;;6212889;23;20573;-72
2023/02/05 05:02:48;;;;;;;14.03;8.10;;;9.20;99.90;;;;;;6214404;23;20636;-72
2023/02/05 05:05:13;;;;;;;14.63;7.97;;;9.20;99.90;;;;;;6216730;23;20468;-75
2023/02/05 05:07:39;;;;;;;15.20;8.60;;;9.10;99.90;;;;;;6214930;23;20148;-73
2023/02/05 05:10:08;;;;;;;12.30;8.73;;;9.10;99.90;;;;;;6214892;23;20172;-73
2023/02/05 05:12:35;;;;;;;14.47;8.90;;;9.10;99.90;;;;;;6216499;23;20124;-74
2023/02/05 05:15:01;;;;;;;14.37;8.73;;;9.10;99.90;;;;;;6214980;23;20160;-73
2023/02/05 05:17:27;;;;;;;15.07;9.33;;;9.00;99.90;;;;;;6216004;23;20567;-73
2023/02/05 05:19:52;;;;;;;16.83;10.83;;;8.90;99.90;;;;;;6214878;23;20501;-73
2023/02/05 05:22:19;;;;;;;17.00;11.73;;;8.90;99.90;;;;;;6216101;23;20181;-73
2023/02/05 05:24:44;;;;;;;17.07;11.70;;;9.00;99.90;;;;;;6214795;23;20152;-73
2023/02/05 05:27:10;;;;;;;18.10;11.80;;;8.90;99.90;;;;;;6216280;23;20620;-73
2023/02/05 05:29:36;;;;;;;20.17;12.00;;;8.80;99.90;;;;;;6216224;23;20166;-73
2023/02/05 05:32:01;;;;;;;17.07;11.57;;;8.60;99.90;;;;;;6215814;23;20141;-73
2023/02/05 05:34:27;;;;;;;17.50;12.57;;;8.50;99.90;;;;;;6215960;23;20477;-73
2023/02/05 05:36:53;;;;;;;20.97;13.57;;;8.40;99.90;;;;;;6214717;23;20191;-73
2023/02/05 05:44:50;;;;;;;22.47;14.60;;;8.40;99.90;;;;;;6216108;23;20146;-76
2023/02/05 05:47:17;;;;;;;21.03;14.07;;;8.50;99.90;;;;;;6215933;23;20222;-76
2023/02/05 05:49:42;;;;;;;24.97;15.60;;;8.60;99.90;;;;;;6216096;23;20505;-76
2023/02/05 05:52:08;;;;;;;21.17;14.50;;;8.70;99.90;;;;;;6214412;23;20140;-77
2023/02/05 05:54:33;;;;;;;22.03;15.97;;;8.50;99.90;;;;;;6214450;23;20140;-76
2023/02/05 05:56:59;;;;;;;20.87;15.33;;;8.60;99.90;;;;;;6214313;23;20224;-77
2023/02/05 05:59:24;;;;;;;22.97;15.57;;;8.70;99.90;;;;;;6215779;23;20593;-76
2023/02/05 06:01:50;;;;;;;20.63;16.07;;;8.80;99.90;;;;;;6215483;23;20140;-76
2023/02/05 06:04:16;;;;;;;25.30;16.23;;;8.60;99.90;;;;;;6214371;23;20298;-76
2023/02/05 06:06:42;;;;;;;26.27;16.50;;;8.50;99.90;;;;;;6214488;23;20158;-76
2023/02/05 06:09:09;;;;;;;23.77;15.57;;;8.50;99.90;;;;;;6215887;23;20562;-76
2023/02/05 06:11:35;;;;;;;23.77;17.47;;;8.40;99.90;;;;;;6215926;23;20136;-76
2023/02/05 06:14:01;;;;;;;24.60;16.53;;;8.50;99.90;;;;;;6213744;23;20491;-76
2023/02/05 06:16:27;;;;;;;24.53;17.10;;;8.50;99.90;;;;;;6215912;23;20132;-76
2023/02/05 06:18:54;;;;;;;21.60;16.43;;;8.40;99.90;;;;;;6214147;23;20216;-76
2023/02/05 06:21:20;;;;;;;24.43;18.33;;;8.60;99.90;;;;;;6214206;23;20136;-76
2023/02/05 06:23:45;;;;;;;23.33;17.37;;;8.60;99.90;;;;;;6214619;23;20151;-76
2023/02/05 06:26:11;;;;;;;22.20;16.83;;;8.60;99.90;;;;;;6215777;23;20151;-76
2023/02/05 06:28:36;;;;;;;22.67;15.70;;;8.60;99.90;;;;;;6215803;23;20145;-76
2023/02/05 06:31:02;;;;;;;23.20;16.67;;;8.60;99.90;;;;;;6215121;23;20595;-76
2023/02/05 06:33:28;;;;;;;19.37;13.97;;;8.50;99.90;;;;;;6215648;23;20210;-77
2023/02/05 06:35:54;;;;;;;16.70;12.77;;;8.50;99.90;;;;;;6215647;23;20139;-76
2023/02/05 06:38:19;;;;;;;17.20;10.63;;;8.40;99.90;;;;;;6215467;23;20553;-76
2023/02/05 06:40:46;;;;;;;18.87;10.93;;;8.40;99.90;;;;;;6214020;23;20633;-76
2023/02/05 06:43:13;;;;;;;11.87;7.53;;;8.30;99.90;;;;;;6213955;23;20297;-75
2023/02/05 06:45:39;;;;;;;8.40;4.90;;;8.30;99.90;;;;;;6213807;23;20145;-75
2023/02/05 06:48:05;;;;;;;7.07;2.40;;;8.20;99.90;;;;;;6215685;23;20623;-75
2023/02/05 06:50:31;;;;;;;8.83;1.60;;;8.20;99.90;;;;;;6215390;23;20170;-76
2023/02/05 06:53:10;;;;;;;12.33;1.70;;;8.10;99.90;;;;;;6216176;23;20228;-75
2023/02/05 06:55:56;;;;;;;9.83;1.70;;;8.00;99.90;;;;;;6214134;23;20191;-76
2023/02/05 06:58:25;;;;;;;11.97;1.60;;;8.00;99.90;;;;;;6215797;23;20167;-75
2023/02/05 07:00:52;;;;;;;6.60;1.60;;;8.00;99.90;;;;;;6215435;23;20471;-75
2023/02/05 07:03:21;;;;;;;10.77;1.80;;;8.00;99.90;;;;;;6215584;23;20131;-76
2023/02/05 07:05:49;;;;;;;9.60;2.33;;;8.00;99.90;;;;;;6213932;23;20641;-76
2023/02/05 07:08:17;;;;;;;8.17;1.60;;;8.00;99.90;;;;;;6215717;23;20145;-76
2023/02/05 07:10:45;;;;;;;12.30;2.70;;;8.00;99.90;;;;;;6215356;23;20174;-76
2023/02/05 07:13:11;;;;;;;8.07;2.23;;;7.90;99.90;;;;;;6215370;23;20172;-76
2023/02/05 07:15:38;;;;;;;11.67;2.23;;;7.90;99.90;;;;;;6215693;23;20564;-76
2023/02/05 07:18:05;;;;;;;12.83;2.60;;;7.80;99.90;;;;;;6215718;23;20131;-76
2023/02/05 07:20:32;;;;;;;12.93;2.30;;;7.80;99.90;;;;;;6215364;23;20137;-76
2023/02/05 07:22:59;;;;;;;7.77;1.70;;;7.90;99.90;;;;;;6214146;23;20156;-76
2023/02/05 07:25:26;;;;;;;9.67;2.33;;;8.00;99.90;;;;;;6215299;23;20209;-76
2023/02/05 07:27:54;;;;;;;7.20;1.80;;;8.00;99.90;;;;;;6213786;23;20228;-76
2023/02/05 07:30:21;;;;;;;8.73;1.60;;;8.00;99.90;;;;;;6215420;23;20161;-76
2023/02/05 07:32:47;;;;;;;4.93;0.90;;;8.00;99.90;;;;;;6215257;23;20556;-76
2023/02/05 07:35:16;;;;;;;7.37;0.90;;;7.90;99.90;;;;;;6215488;23;20587;-76
2023/02/05 07:37:42;;;;;;;5.03;1.10;;;7.70;99.90;;;;;;6215268;23;20136;-76
2023/02/05 07:40:09;;;;;;;9.07;0.97;;;7.60;99.90;;;;;;6215493;23;20141;-75
2023/02/05 07:42:34;;;;;;;10.40;2.70;;;7.50;99.90;;;;;;6215069;23;20150;-74
2023/02/05 07:45:01;;;;;;;6.10;1.53;;;7.50;99.90;;;;;;6215236;23;20219;-74
2023/02/05 07:47:27;;;;;;;4.40;1.20;;;7.50;99.90;;;;;;6214969;23;20140;-74
2023/02/05 07:49:53;;;;;;;7.67;1.67;;;7.60;99.90;;;;;;6215023;23;20165;-74
2023/02/05 07:52:24;;;;;;;7.90;1.23;;;7.70;99.90;;;;;;6215222;23;20131;-74
2023/02/05 07:54:51;;;;;;;5.00;1.30;;;7.60;99.90;;;;;;6215432;23;20168;-75
2023/02/05 07:57:16;;;;;;;7.33;1.57;;;7.70;99.90;;;;;;6214848;23;20452;-74
2023/02/05 07:59:42;;;;;;;6.60;1.40;;;7.70;99.90;;;;;;6213788;23;20241;-71
2023/02/05 08:02:10;;;;;;;7.60;1.60;;;7.80;99.90;;;;;;6215303;23;20144;-71
2023/02/05 08:04:35;;;;;;;7.70;1.33;;;7.90;99.90;;;;;;6213560;23;20186;-71
2023/02/05 08:07:01;;;;;;;16.57;1.83;;;7.90;99.90;;;;;;6214618;23;20137;-76
2023/02/05 08:09:29;;;;;;;8.37;1.80;;;7.80;99.90;;;;;;6213303;23;20163;-70
2023/02/05 08:11:54;;;;;;;7.60;1.60;;;7.90;99.90;;;;;;6214669;23;20216;-70
2023/02/05 08:14:21;;;;;;;6.53;1.80;;;7.90;99.90;;;;;;6214945;23;20160;-71
2023/02/05 08:16:47;;;;;;;7.40;1.53;;;8.00;99.90;;;;;;6214514;23;20464;-72
2023/02/05 08:19:16;;;;;;;11.70;2.77;;;8.00;99.90;;;;;;6214765;23;20133;-73
2023/02/05 08:21:43;;;;;;;6.87;1.40;;;8.00;99.90;;;;;;6214394;23;20158;-72
2023/02/05 08:24:09;;;;;;;12.13;2.07;;;7.90;99.90;;;;;;6213430;23;20178;-72
2023/02/05 08:26:35;;;;;;;7.10;1.80;;;7.90;99.90;;;;;;6208088;23;20139;-73
2023/02/05 08:29:01;;;;;;;8.10;1.70;;;7.90;99.90;;;;;;6207537;23;20174;-72
2023/02/05 08:31:26;;;;;;;9.00;2.20;;;8.00;99.90;;;;;;6212320;23;20219;-73
2023/02/05 08:33:53;;;;;;;12.87;2.67;;;8.00;99.90;;;;;;6213882;23;20171;-73
2023/02/05 08:36:20;;;;;;;7.10;1.87;;;8.00;99.90;;;;;;6213805;23;20197;-73
2023/02/05 08:38:46;;;;;;;9.07;1.57;;;8.10;99.90;;;;;;6212344;23;20221;-72
2023/02/05 08:41:13;;;;;;;8.50;1.60;;;8.00;99.90;;;;;;6214106;23;20217;-72
2023/02/05 08:43:40;;;;;;;5.47;1.27;;;8.00;99.90;;;;;;6214240;23;20217;-72
2023/02/05 08:46:06;;;;;;;8.17;1.47;;;8.10;99.90;;;;;;6215125;23;20603;-72
2023/02/05 08:48:32;;;;;;;7.80;1.50;;;8.10;99.90;;;;;;6212771;23;20144;-73
2023/02/05 08:50:58;;;;;;;14.10;3.00;;;8.10;99.90;;;;;;6214913;23;20166;-72
2023/02/05 08:53:23;;;;;;;12.33;1.60;;;8.20;99.90;;;;;;6214304;23;20136;-73
2023/02/05 08:55:56;;;;;;;9.30;2.07;;;8.20;99.90;;;;;;6214617;23;20139;-73
2023/02/05 08:58:23;;;;;;;15.47;1.80;;;8.10;99.90;;;;;;6212736;23;20640;-72
2023/02/05 09:00:48;;;;;;;10.83;1.70;;;8.20;99.90;;;;;;6214664;23;20144;-73
2023/02/05 09:03:14;;;;;;;11.67;1.70;;;8.10;99.90;;;;;;6214555;23;20155;-72
2023/02/05 09:05:40;;;;;;;8.33;1.73;;;8.00;99.90;;;;;;6213377;23;20234;-73
2023/02/05 09:08:05;;;;;;;12.07;2.40;;;8.00;99.90;;;;;;6215030;23;20567;-73
2023/02/05 09:10:31;;;;;;;12.77;2.13;;;8.00;99.90;;;;;;6214466;23;20163;-73
2023/02/05 09:12:57;;;;;;;13.33;3.13;;;8.10;99.90;;;;;;6214604;23;20517;-73
2023/02/05 09:15:22;;;;;;;16.50;2.00;;;8.10;99.90;;;;;;6214291;23;20136;-73
2023/02/05 09:17:49;;;;;;;17.97;2.50;;;8.20;99.90;;;;;;6214534;23;20224;-73
2023/02/05 09:20:15;;;;;;;10.17;1.70;;;8.30;99.90;;;;;;6214791;23;20197;-73
2023/02/05 09:22:41;;;;;;;15.13;2.30;;;8.40;99.90;;;;;;6214321;23;20143;-73
2023/02/05 09:25:07;;;;;;;11.37;1.93;;;8.50;99.90;;;;;;6214149;23;20142;-73
2023/02/05 09:27:33;;;;;;;16.20;2.50;;;8.60;99.90;;;;;;6212910;23;20155;-73
2023/02/05 09:29:59;;;;;;;11.97;2.10;;;8.50;99.90;;;;;;6212531;23;20170;-73
2023/02/05 09:32:25;;;;;;;13.13;1.80;;;8.40;99.90;;;;;;6211790;23;20145;-73
2023/02/05 09:34:50;;;;;;;13.43;1.80;;;8.40;99.90;;;;;;6212879;23;20148;-73
2023/02/05 09:37:16;;;;;;;14.27;2.13;;;8.40;99.90;;;;;;6214335;23;20141;-72
2023/02/05 09:39:42;;;;;;;14.77;3.43;;;8.20;99.90;;;;;;6214380;23;20214;-73
2023/02/05 09:42:43;;;;;;;14.30;2.00;;;8.10;99.90;;;;;;6213078;23;20566;-73
2023/02/05 09:45:31;;;;;;;10.50;2.10;;;8.30;99.90;;;;;;6180245;23;20154;-73
2023/02/05 09:48:17;;;;;;;13.27;2.37;;;8.20;99.90;;;;;;6214695;23;20133;-73
2023/02/05 09:50:43;;;;;;;14.80;2.67;;;8.20;99.90;;;;;;6215947;23;20257;-72
2023/02/05 09:53:17;;;;;;;15.50;2.53;;;8.20;99.90;;;;;;6216587;23;20561;-73
2023/02/05 09:55:44;;;;;;;12.80;2.07;;;8.30;99.90;;;;;;6215060;23;20576;-73
2023/02/05 09:58:29;;;;;;;17.33;3.00;;;8.40;99.90;;;;;;6216784;23;20159;-72
2023/02/05 10:01:04;;;;;;;20.97;3.50;;;8.40;99.90;;;;;;6216452;23;20139;-73
2023/02/05 10:03:43;;;;;;;8.43;2.50;;;8.50;99.90;;;;;;6216502;23;20232;-73
2023/02/05 10:06:26;;;;;;;18.53;2.87;;;8.40;99.90;;;;;;6214835;23;20229;-72
2023/02/05 10:09:04;;;;;;;19.40;3.33;;;8.40;99.90;;;;;;6214743;23;20154;-73
2023/02/05 10:11:41;;;;;;;16.73;2.60;;;8.50;99.90;;;;;;6214846;23;20212;-72
2023/02/05 10:14:25;;;;;;;12.17;2.67;;;8.50;99.90;;;;;;6214788;23;20200;-71
2023/02/05 10:17:17;;;;;;;17.43;2.73;;;8.40;99.90;;;;;;6217439;23;20131;-72
2023/02/05 10:20:14;;;;;;;15.73;3.20;;;8.50;99.90;;;;;;6216542;23;20142;-71
2023/02/05 10:23:28;;;;;;;12.93;2.90;;;8.60;99.90;;;;;;6212129;23;20153;-71
2023/02/05 10:26:03;;;;;;;13.23;3.40;;;8.60;99.90;;;;;;6186889;23;20161;-71
2023/02/05 10:28:52;;;;;;;17.90;2.77;;;8.60;99.90;;;;;;6216345;23;20724;-71
2023/02/05 10:31:42;;;;;;;22.83;3.10;;;8.60;99.90;;;;;;6213692;23;20174;-71
2023/02/05 10:34:27;;;;;;;18.37;3.10;;;8.80;99.90;;;;;;6214687;23;20178;-71
2023/02/05 10:36:54;;;;;;;16.43;3.00;;;8.90;99.90;;;;;;6214699;23;20136;-71
2023/02/05 10:39:25;;;;;;;17.70;2.77;;;8.90;99.90;;;;;;6213650;23;20140;-71
2023/02/05 10:41:58;;;;;;;19.00;2.77;;;8.70;99.90;;;;;;6216552;23;20574;-72
2023/02/05 10:44:35;;;;;;;20.20;3.53;;;8.60;99.90;;;;;;6213931;23;20235;-71
2023/02/05 10:47:23;;;;;;;25.87;3.73;;;8.70;99.90;;;;;;6215621;23;20136;-71
2023/02/05 10:50:01;;;;;;;18.13;3.70;;;8.70;99.90;;;;;;6215107;23;20247;-71
2023/02/05 10:52:27;;;;;;;26.00;3.87;;;8.70;99.90;;;;;;6214042;23;20146;-71
2023/02/05 10:54:54;;;;;;;20.20;3.17;;;8.80;99.90;;;;;;6215821;23;20135;-71
2023/02/05 10:57:22;;;;;;;16.50;4.17;;;8.90;99.90;;;;;;6215705;23;20159;-71
2023/02/05 11:00:17;;;;;;;13.77;2.70;;;9.10;99.90;;;;;;6214104;23;20147;-71
2023/02/05 11:02:51;;;;;;;15.70;2.43;;;9.20;99.90;;;;;;6215600;23;20659;-71
2023/02/05 11:05:25;;;;;;;14.37;2.20;;;9.20;99.90;;;;;;6215497;23;20186;-71
2023/02/05 11:07:53;;;;;;;9.50;2.23;;;9.20;99.90;;;;;;6214300;23;20144;-71
2023/02/05 11:10:25;;;;;;;13.00;2.60;;;9.10;99.90;;;;;;6213930;23;20167;-72
2023/02/05 11:13:18;;;;;;;11.87;2.53;;;9.30;99.90;;;;;;6213873;23;20554;-71
2023/02/05 11:16:07;;;;;;;16.10;3.40;;;9.40;99.90;;;;;;6207509;23;20192;-71
2023/02/05 11:18:39;;;;;;;15.93;2.97;;;9.30;99.90;;;;;;6215949;23;20159;-71
2023/02/05 11:21:08;;;;;;;11.20;2.67;;;9.30;99.90;;;;;;6215294;23;20566;-71
2023/02/05 11:23:38;;;;;;;12.80;2.37;;;9.30;99.90;;;;;;6215642;23;20493;-70
2023/02/05 11:26:15;;;;;;;16.30;3.03;;;9.30;99.90;;;;;;6215383;23;20465;-70
2023/02/05 11:28:41;;;;;;;13.63;2.83;;;9.50;99.90;;;;;;6214019;23;20254;-70
2023/02/05 11:31:33;;;;;;;12.50;3.23;;;9.60;99.90;;;;;;6214454;23;20196;-70
2023/02/05 11:34:08;;;;;;;19.10;3.57;;;9.60;99.90;;;;;;6213443;23;20150;-72
2023/02/05 11:36:36;;;;;;;21.80;3.17;;;9.40;99.90;;;;;;6213616;23;20147;-70
2023/02/05 11:39:04;;;;;;;16.93;2.73;;;9.40;99.90;;;;;;6215438;23;20182;-71
2023/02/05 11:41:48;;;;;;;16.23;3.13;;;9.50;99.90;;;;;;6213758;23;20494;-70
2023/02/05 11:44:19;;;;;;;18.57;3.40;;;9.60;99.90;;;;;;6215361;23;20211;-71
2023/02/05 11:46:45;;;;;;;15.60;3.27;;;9.80;99.90;;;;;;6215238;23;20140;-71
2023/02/05 11:49:20;;;;;;;14.70;3.30;;;9.90;99.90;;;;;;6215023;23;20195;-71
2023/02/05 11:51:53;;;;;;;15.33;3.17;;;10.00;99.90;;;;;;6213850;23;20641;-71
2023/02/05 11:54:24;;;;;;;20.57;3.13;;;10.00;99.90;;;;;;6215412;23;20163;-71
2023/02/05 11:57:12;;;;;;;13.10;2.70;;;10.20;99.90;;;;;;6213213;23;20174;-71
2023/02/05 11:59:39;;;;;;;14.70;3.33;;;10.20;99.90;;;;;;6212665;23;20159;-71
2023/02/05 12:02:27;;;;;;;13.00;2.70;;;10.00;99.90;;;;;;6214181;23;20132;-71
2023/02/05 12:05:09;;;;;;;13.37;3.40;;;10.00;99.90;;;;;;6212346;23;20163;-70
2023/02/05 12:07:43;;;;;;;17.17;3.27;;;10.00;99.90;;;;;;6215575;23;20136;-71
2023/02/05 12:10:27;;;;;;;16.80;3.20;;;10.10;99.90;;;;;;6215147;23;20217;-72
2023/02/05 12:13:17;;;;;;;20.10;3.33;;;10.40;99.90;;;;;;6214397;23;20128;-71
2023/02/05 12:16:02;;;;;;;17.83;3.53;;;10.70;99.90;;;;;;6215018;23;20464;-71
2023/02/05 12:18:41;;;;;;;18.47;3.30;;;11.10;99.90;;;;;;6214278;23;20532;-71
2023/02/05 12:21:43;;;;;;;17.87;4.10;;;11.30;99.90;;;;;;6214968;23;20143;-71
2023/02/05 12:24:36;;;;;;;12.97;2.67;;;11.40;99.90;;;;;;6215049;23;20556;-71
2023/02/05 12:27:13;;;;;;;15.67;2.90;;;11.30;99.90;;;;;;6215002;23;20128;-71
2023/02/05 12:29:57;;;;;;;11.43;2.37;;;11.20;99.90;;;;;;6213519;23;20171;-72
2023/02/05 12:32:49;;;;;;;17.77;2.77;;;11.20;99.90;;;;;;6214458;23;20187;-71
2023/02/05 12:35:48;;;;;;;14.13;2.30;;;11.20;99.90;;;;;;6213314;23;20570;-70
2023/02/05 12:38:39;;;;;;;15.13;2.13;;;11.00;99.90;;;;;;6214777;23;20477;-71
2023/02/05 12:41:10;;;;;;;14.93;3.20;;;11.10;99.90;;;;;;6214694;23;20137;-73
2023/02/05 12:43:38;;;;;;;13.50;3.13;;;11.30;99.90;;;;;;6214359;23;20156;-72
2023/02/05 12:46:18;;;;;;;14.60;2.80;;;11.70;99.90;;;;;;6213063;23;20155;-72
2023/02/05 12:48:56;;;;;;;11.83;2.20;;;11.60;99.90;;;;;;6213135;23;20176;-72
2023/02/05 12:51:25;;;;;;;10.67;2.60;;;11.30;99.90;;;;;;6213209;23;20250;-72
2023/02/05 12:54:16;;;;;;;14.30;2.50;;;11.10;99.90;;;;;;6212691;23;20159;-72
2023/02/05 12:56:46;;;;;;;16.00;2.40;;;10.60;99.90;;;;;;6213822;23;20170;-70
2023/02/05 12:59:19;;;;;;;16.77;3.27;;;10.50;99.90;;;;;;6213683;23;20140;-71
2023/02/05 13:01:45;;;;;;;14.07;2.17;;;10.50;99.90;;;;;;6214313;23;20128;-71
2023/02/05 13:04:50;;;;;;;18.73;3.27;;;10.50;99.90;;;;;;6211748;23;20146;-71
2023/02/05 13:07:57;;;;;;;12.97;2.40;;;11.00;99.90;;;;;;6214390;23;20637;-71